Apple Grove, North Carolina
Current Conditions -  °F | °C
As of 2:15 PM on Tuesday 21 Oct 2014 (Local Time) from KGEV Reporting Station
Overcast Overcast  
Wind Chill: 53°   Ceiling: 3300
Heat Index: 53°   Visibility: 10mi
Dew Point: 37°   Wind: 12mph
Humidity: 55%   Direction: 270°W
Pressure: 29.95"   Gusts: 17mph
Location:  36.524°N, 81.538°W
Report Text: KGEV 211815Z AUTO 27010G15KT 10SM BKN033 OVC041 12/03 A2995 RMK AO2 T01180029
Loading
Personal Weather Stations






























Interactive Weather Map
Tropical Storm Tracking
New forecast layout! Learn more

10-Day Weather Forecast

Advertisements
Track Severe Weather on mobile